sensor_id;sensor_type;location;lat;lon;timestamp;temperature;humidity
20349;DHT22;10332;50.208;18.988;2023-05-10T00:01:43;10.00;99.90
20349;DHT22;10332;50.208;18.988;2023-05-10T00:04:11;10.00;99.90
20349;DHT22;10332;50.208;18.988;2023-05-10T00:06:38;9.90;99.90
20349;DHT22;10332;50.208;18.988;2023-05-10T00:09:07;9.90;1.00
20349;DHT22;10332;50.208;18.988;2023-05-10T00:11:34;9.90;99.90
20349;DHT22;10332;50.208;18.988;2023-05-10T00:14:02;9.80;99.90
20349;DHT22;10332;50.208;18.988;2023-05-10T00:16:30;9.80;99.90
20349;DHT22;10332;50.208;18.988;2023-05-10T00:19:00;9.80;1.00
20349;DHT22;10332;50.208;18.988;2023-05-10T00:21:28;9.70;99.90
20349;DHT22;10332;50.208;18.988;2023-05-10T00:23:56;9.70;99.90
20349;DHT22;10332;50.208;18.988;2023-05-10T00:26:23;9.70;1.00
20349;DHT22;10332;50.208;18.988;2023-05-10T00:28:51;9.70;99.90
20349;DHT22;10332;50.208;18.988;2023-05-10T00:31:18;9.70;1.00
20349;DHT22;10332;50.208;18.988;2023-05-10T00:33:46;9.70;99.90
20349;DHT22;10332;50.208;18.988;2023-05-10T00:36:13;9.60;1.00
20349;DHT22;10332;50.208;18.988;2023-05-10T00:38:41;9.60;1.00
20349;DHT22;10332;50.208;18.988;2023-05-10T00:41:08;9.60;1.00
20349;DHT22;10332;50.208;18.988;2023-05-10T00:43:36;9.60;1.00
20349;DHT22;10332;50.208;18.988;2023-05-10T00:46:04;9.50;1.00
20349;DHT22;10332;50.208;18.988;2023-05-10T00:48:32;9.50;1.00
20349;DHT22;10332;50.208;18.988;2023-05-10T00:51:01;9.50;1.00
20349;DHT22;10332;50.208;18.988;2023-05-10T00:53:31;9.50;1.00
20349;DHT22;10332;50.208;18.988;2023-05-10T00:55:59;9.50;1.00
20349;DHT22;10332;50.208;18.988;2023-05-10T00:58:28;9.50;1.00
20349;DHT22;10332;50.208;18.988;2023-05-10T01:00:55;9.50;1.00
20349;DHT22;10332;50.208;18.988;2023-05-10T01:03:25;9.50;1.00
20349;DHT22;10332;50.208;18.988;2023-05-10T01:05:52;9.40;99.90
20349;DHT22;10332;50.208;18.988;2023-05-10T01:08:20;9.40;99.90
20349;DHT22;10332;50.208;18.988;2023-05-10T01:10:48;9.40;99.90
20349;DHT22;10332;50.208;18.988;2023-05-10T01:13:36;9.50;99.90
20349;DHT22;10332;50.208;18.988;2023-05-10T01:16:06;9.50;99.90
20349;DHT22;10332;50.208;18.988;2023-05-10T01:18:44;9.40;99.90
20349;DHT22;10332;50.208;18.988;2023-05-10T01:25:11;9.40;99.90
20349;DHT22;10332;50.208;18.988;2023-05-10T01:32:58;9.30;99.90
20349;DHT22;10332;50.208;18.988;2023-05-10T01:35:38;9.30;99.90
20349;DHT22;10332;50.208;18.988;2023-05-10T01:38:49;9.30;1.00
20349;DHT22;10332;50.208;18.988;2023-05-10T01:46:58;9.10;1.00
20349;DHT22;10332;50.208;18.988;2023-05-10T01:49:37;9.10;1.00
20349;DHT22;10332;50.208;18.988;2023-05-10T01:52:12;9.00;99.90
20349;DHT22;10332;50.208;18.988;2023-05-10T01:54:50;9.00;99.90
20349;DHT22;10332;50.208;18.988;2023-05-10T01:57:26;9.00;99.90
20349;DHT22;10332;50.208;18.988;2023-05-10T01:59:58;9.00;1.00
20349;DHT22;10332;50.208;18.988;2023-05-10T02:02:30;8.90;99.90
20349;DHT22;10332;50.208;18.988;2023-05-10T02:05:07;8.90;1.00
20349;DHT22;10332;50.208;18.988;2023-05-10T02:07:37;8.90;1.00
20349;DHT22;10332;50.208;18.988;2023-05-10T02:10:06;8.90;99.90
20349;DHT22;10332;50.208;18.988;2023-05-10T02:12:36;8.90;1.00
20349;DHT22;10332;50.208;18.988;2023-05-10T02:15:08;8.80;1.00
20349;DHT22;10332;50.208;18.988;2023-05-10T02:17:39;8.80;1.00
20349;DHT22;10332;50.208;18.988;2023-05-10T02:20:10;8.80;1.00
20349;DHT22;10332;50.208;18.988;2023-05-10T02:22:40;8.70;1.00
20349;DHT22;10332;50.208;18.988;2023-05-10T02:25:10;8.80;57.50
20349;DHT22;10332;50.208;18.988;2023-05-10T02:27:41;8.80;30.60
20349;DHT22;10332;50.208;18.988;2023-05-10T02:30:11;8.70;99.90
20349;DHT22;10332;50.208;18.988;2023-05-10T02:32:41;8.70;99.90
20349;DHT22;10332;50.208;18.988;2023-05-10T02:35:10;8.70;95.00
20349;DHT22;10332;50.208;18.988;2023-05-10T02:37:40;8.70;88.10
20349;DHT22;10332;50.208;18.988;2023-05-10T02:40:08;8.70;1.00
20349;DHT22;10332;50.208;18.988;2023-05-10T02:42:38;8.70;99.90
20349;DHT22;10332;50.208;18.988;2023-05-10T02:45:12;8.60;99.90
20349;DHT22;10332;50.208;18.988;2023-05-10T02:47:42;8.60;99.90
20349;DHT22;10332;50.208;18.988;2023-05-10T02:50:10;8.60;99.90
20349;DHT22;10332;50.208;18.988;2023-05-10T02:52:50;8.60;1.00
20349;DHT22;10332;50.208;18.988;2023-05-10T02:55:26;8.60;1.00
20349;DHT22;10332;50.208;18.988;2023-05-10T02:58:01;8.50;1.00
20349;DHT22;10332;50.208;18.988;2023-05-10T03:00:30;8.60;1.00
20349;DHT22;10332;50.208;18.988;2023-05-10T03:02:58;8.60;1.00
20349;DHT22;10332;50.208;18.988;2023-05-10T03:05:27;8.50;1.00
20349;DHT22;10332;50.208;18.988;2023-05-10T03:07:55;8.50;1.00
20349;DHT22;10332;50.208;18.988;2023-05-10T03:10:27;8.40;1.00
20349;DHT22;10332;50.208;18.988;2023-05-10T03:15:57;8.40;1.00
20349;DHT22;10332;50.208;18.988;2023-05-10T03:18:39;8.40;1.00
20349;DHT22;10332;50.208;18.988;2023-05-10T03:21:12;8.40;99.90
20349;DHT22;10332;50.208;18.988;2023-05-10T03:23:59;8.50;99.90
20349;DHT22;10332;50.208;18.988;2023-05-10T03:26:35;8.60;99.90
20349;DHT22;10332;50.208;18.988;2023-05-10T03:29:05;8.50;99.90
20349;DHT22;10332;50.208;18.988;2023-05-10T03:31:33;8.50;1.00
20349;DHT22;10332;50.208;18.988;2023-05-10T03:34:01;8.50;1.00
20349;DHT22;10332;50.208;18.988;2023-05-10T03:36:28;8.40;99.90
20349;DHT22;10332;50.208;18.988;2023-05-10T03:38:56;8.40;1.00
20349;DHT22;10332;50.208;18.988;2023-05-10T03:41:23;8.40;99.90
20349;DHT22;10332;50.208;18.988;2023-05-10T03:43:52;8.40;1.00
20349;DHT22;10332;50.208;18.988;2023-05-10T03:46:19;8.40;1.00
20349;DHT22;10332;50.208;18.988;2023-05-10T03:48:47;8.40;1.00
20349;DHT22;10332;50.208;18.988;2023-05-10T03:51:14;8.50;1.00
20349;DHT22;10332;50.208;18.988;2023-05-10T03:53:42;8.50;99.90
20349;DHT22;10332;50.208;18.988;2023-05-10T03:56:09;8.50;1.00
20349;DHT22;10332;50.208;18.988;2023-05-10T03:58:37;8.50;99.90
20349;DHT22;10332;50.208;18.988;2023-05-10T04:01:04;8.50;99.90
20349;DHT22;10332;50.208;18.988;2023-05-10T04:03:32;8.50;99.90
20349;DHT22;10332;50.208;18.988;2023-05-10T04:06:00;8.50;99.90
20349;DHT22;10332;50.208;18.988;2023-05-10T04:08:29;8.60;54.50
20349;DHT22;10332;50.208;18.988;2023-05-10T04:11:10;8.60;99.90
20349;DHT22;10332;50.208;18.988;2023-05-10T04:13:39;8.70;99.90
20349;DHT22;10332;50.208;18.988;2023-05-10T04:16:07;8.70;1.00
20349;DHT22;10332;50.208;18.988;2023-05-10T04:18:35;8.70;1.00
20349;DHT22;10332;50.208;18.988;2023-05-10T04:21:02;8.80;1.00
20349;DHT22;10332;50.208;18.988;2023-05-10T04:23:31;8.80;1.00
20349;DHT22;10332;50.208;18.988;2023-05-10T04:26:02;8.80;1.00
20349;DHT22;10332;50.208;18.988;2023-05-10T04:28:29;8.90;1.00
20349;DHT22;10332;50.208;18.988;2023-05-10T04:31:03;8.90;1.00
20349;DHT22;10332;50.208;18.988;2023-05-10T04:33:37;8.90;99.90
20349;DHT22;10332;50.208;18.988;2023-05-10T04:36:05;9.00;99.90
20349;DHT22;10332;50.208;18.988;2023-05-10T04:38:32;9.00;99.90
20349;DHT22;10332;50.208;18.988;2023-05-10T04:41:07;9.10;99.90
20349;DHT22;10332;50.208;18.988;2023-05-10T04:43:37;9.10;1.00
20349;DHT22;10332;50.208;18.988;2023-05-10T04:46:05;9.20;1.00
20349;DHT22;10332;50.208;18.988;2023-05-10T04:48:34;9.30;1.00
20349;DHT22;10332;50.208;18.988;2023-05-10T04:51:02;9.40;99.90
20349;DHT22;10332;50.208;18.988;2023-05-10T04:53:31;9.50;99.90
20349;DHT22;10332;50.208;18.988;2023-05-10T04:55:59;9.50;1.00
20349;DHT22;10332;50.208;18.988;2023-05-10T04:58:27;9.60;88.10
20349;DHT22;10332;50.208;18.988;2023-05-10T05:00:54;9.60;1.00
20349;DHT22;10332;50.208;18.988;2023-05-10T05:03:22;9.60;1.00
20349;DHT22;10332;50.208;18.988;2023-05-10T05:05:49;9.70;1.00
20349;DHT22;10332;50.208;18.988;2023-05-10T05:08:17;9.70;1.00
20349;DHT22;10332;50.208;18.988;2023-05-10T05:10:44;9.80;1.00
20349;DHT22;10332;50.208;18.988;2023-05-10T05:13:14;9.90;99.90
20349;DHT22;10332;50.208;18.988;2023-05-10T05:15:41;9.90;99.90
20349;DHT22;10332;50.208;18.988;2023-05-10T05:18:09;9.90;99.90
20349;DHT22;10332;50.208;18.988;2023-05-10T05:20:37;10.00;99.90
20349;DHT22;10332;50.208;18.988;2023-05-10T05:23:04;10.10;99.90
20349;DHT22;10332;50.208;18.988;2023-05-10T05:25:32;10.10;99.90
20349;DHT22;10332;50.208;18.988;2023-05-10T05:28:00;10.20;99.90
20349;DHT22;10332;50.208;18.988;2023-05-10T05:30:28;10.20;99.90
20349;DHT22;10332;50.208;18.988;2023-05-10T05:32:56;10.20;99.90
20349;DHT22;10332;50.208;18.988;2023-05-10T05:35:23;10.30;99.90
20349;DHT22;10332;50.208;18.988;2023-05-10T05:37:51;10.40;99.90
20349;DHT22;10332;50.208;18.988;2023-05-10T05:40:19;10.50;99.90
20349;DHT22;10332;50.208;18.988;2023-05-10T05:42:47;10.50;74.10
20349;DHT22;10332;50.208;18.988;2023-05-10T05:45:14;10.60;1.00
20349;DHT22;10332;50.208;18.988;2023-05-10T05:47:44;10.70;1.00
20349;DHT22;10332;50.208;18.988;2023-05-10T05:50:14;10.70;1.00
20349;DHT22;10332;50.208;18.988;2023-05-10T05:52:41;10.80;1.00
20349;DHT22;10332;50.208;18.988;2023-05-10T05:55:09;10.80;1.00
20349;DHT22;10332;50.208;18.988;2023-05-10T05:57:36;11.00;1.00
20349;DHT22;10332;50.208;18.988;2023-05-10T06:00:05;11.00;1.00
20349;DHT22;10332;50.208;18.988;2023-05-10T06:02:33;11.10;1.00
20349;DHT22;10332;50.208;18.988;2023-05-10T06:05:01;11.20;99.90
20349;DHT22;10332;50.208;18.988;2023-05-10T06:07:28;11.30;99.90
20349;DHT22;10332;50.208;18.988;2023-05-10T06:09:56;11.30;99.90
20349;DHT22;10332;50.208;18.988;2023-05-10T06:12:24;11.40;99.90
20349;DHT22;10332;50.208;18.988;2023-05-10T06:14:51;11.50;99.90
20349;DHT22;10332;50.208;18.988;2023-05-10T06:17:19;11.60;99.90
20349;DHT22;10332;50.208;18.988;2023-05-10T06:19:46;11.70;99.90
20349;DHT22;10332;50.208;18.988;2023-05-10T06:22:14;11.80;99.90
20349;DHT22;10332;50.208;18.988;2023-05-10T06:24:41;12.00;49.10
20349;DHT22;10332;50.208;18.988;2023-05-10T06:27:09;12.10;12.30
20349;DHT22;10332;50.208;18.988;2023-05-10T06:29:36;12.20;1.00
20349;DHT22;10332;50.208;18.988;2023-05-10T06:32:04;12.30;1.00
20349;DHT22;10332;50.208;18.988;2023-05-10T06:34:31;12.40;1.00
20349;DHT22;10332;50.208;18.988;2023-05-10T06:36:59;12.50;1.00
20349;DHT22;10332;50.208;18.988;2023-05-10T06:39:26;12.70;1.00
20349;DHT22;10332;50.208;18.988;2023-05-10T06:41:56;12.80;1.00
20349;DHT22;10332;50.208;18.988;2023-05-10T06:44:23;12.90;1.00
20349;DHT22;10332;50.208;18.988;2023-05-10T06:46:51;13.00;1.00
20349;DHT22;10332;50.208;18.988;2023-05-10T06:49:20;13.10;1.00
20349;DHT22;10332;50.208;18.988;2023-05-10T06:51:47;13.20;1.00
20349;DHT22;10332;50.208;18.988;2023-05-10T06:54:15;13.30;1.00
20349;DHT22;10332;50.208;18.988;2023-05-10T06:56:42;13.40;1.00
20349;DHT22;10332;50.208;18.988;2023-05-10T06:59:10;13.40;1.00
20349;DHT22;10332;50.208;18.988;2023-05-10T07:01:38;13.50;1.00
20349;DHT22;10332;50.208;18.988;2023-05-10T07:04:05;13.70;1.00
20349;DHT22;10332;50.208;18.988;2023-05-10T07:06:34;13.80;1.00
20349;DHT22;10332;50.208;18.988;2023-05-10T07:09:02;13.90;1.00
20349;DHT22;10332;50.208;18.988;2023-05-10T07:11:30;14.00;1.00
20349;DHT22;10332;50.208;18.988;2023-05-10T07:13:58;14.10;1.00
20349;DHT22;10332;50.208;18.988;2023-05-10T07:16:25;14.30;1.00
20349;DHT22;10332;50.208;18.988;2023-05-10T07:18:53;14.50;1.00
20349;DHT22;10332;50.208;18.988;2023-05-10T07:21:20;14.60;1.00
20349;DHT22;10332;50.208;18.988;2023-05-10T07:23:51;14.70;1.00
20349;DHT22;10332;50.208;18.988;2023-05-10T07:26:21;14.90;1.00
20349;DHT22;10332;50.208;18.988;2023-05-10T07:28:48;15.00;1.00
20349;DHT22;10332;50.208;18.988;2023-05-10T07:31:16;15.10;99.90
20349;DHT22;10332;50.208;18.988;2023-05-10T07:33:44;15.20;99.90
20349;DHT22;10332;50.208;18.988;2023-05-10T07:36:19;15.30;99.90
20349;DHT22;10332;50.208;18.988;2023-05-10T07:38:48;15.40;99.90
20349;DHT22;10332;50.208;18.988;2023-05-10T07:41:16;15.50;99.90
20349;DHT22;10332;50.208;18.988;2023-05-10T07:43:44;15.60;99.90
20349;DHT22;10332;50.208;18.988;2023-05-10T07:46:13;15.60;99.90
20349;DHT22;10332;50.208;18.988;2023-05-10T07:48:40;15.80;99.90
20349;DHT22;10332;50.208;18.988;2023-05-10T07:51:08;15.80;99.90
20349;DHT22;10332;50.208;18.988;2023-05-10T07:53:37;15.90;99.90
20349;DHT22;10332;50.208;18.988;2023-05-10T07:58:52;16.00;99.90
20349;DHT22;10332;50.208;18.988;2023-05-10T08:01:20;16.20;99.90
20349;DHT22;10332;50.208;18.988;2023-05-10T08:03:47;16.10;99.90
20349;DHT22;10332;50.208;18.988;2023-05-10T08:06:16;16.10;99.90
20349;DHT22;10332;50.208;18.988;2023-05-10T08:08:46;16.30;99.90
20349;DHT22;10332;50.208;18.988;2023-05-10T08:11:17;16.30;99.90
20349;DHT22;10332;50.208;18.988;2023-05-10T08:13:45;16.40;99.90
20349;DHT22;10332;50.208;18.988;2023-05-10T08:16:13;16.50;99.90
20349;DHT22;10332;50.208;18.988;2023-05-10T08:18:41;16.60;99.90
20349;DHT22;10332;50.208;18.988;2023-05-10T08:21:09;16.60;99.90
20349;DHT22;10332;50.208;18.988;2023-05-10T08:23:38;16.70;99.90
20349;DHT22;10332;50.208;18.988;2023-05-10T08:26:06;16.80;99.90
20349;DHT22;10332;50.208;18.988;2023-05-10T08:28:33;17.00;99.90
20349;DHT22;10332;50.208;18.988;2023-05-10T08:31:01;17.10;99.90
20349;DHT22;10332;50.208;18.988;2023-05-10T08:33:28;17.20;99.90
20349;DHT22;10332;50.208;18.988;2023-05-10T08:35:56;17.30;99.90
20349;DHT22;10332;50.208;18.988;2023-05-10T08:38:24;17.40;99.90
20349;DHT22;10332;50.208;18.988;2023-05-10T08:40:54;17.60;99.90
20349;DHT22;10332;50.208;18.988;2023-05-10T08:43:27;17.60;99.90
20349;DHT22;10332;50.208;18.988;2023-05-10T08:46:01;17.80;99.90
20349;DHT22;10332;50.208;18.988;2023-05-10T08:48:33;17.90;99.90
20349;DHT22;10332;50.208;18.988;2023-05-10T08:51:02;18.00;99.90
20349;DHT22;10332;50.208;18.988;2023-05-10T08:53:32;18.10;99.90
20349;DHT22;10332;50.208;18.988;2023-05-10T08:56:03;18.10;99.90
20349;DHT22;10332;50.208;18.988;2023-05-10T08:58:32;18.10;99.90
20349;DHT22;10332;50.208;18.988;2023-05-10T09:01:00;18.10;99.90
20349;DHT22;10332;50.208;18.988;2023-05-10T09:03:28;18.10;99.90
20349;DHT22;10332;50.208;18.988;2023-05-10T09:05:57;18.20;99.90
20349;DHT22;10332;50.208;18.988;2023-05-10T09:08:25;18.20;99.90
20349;DHT22;10332;50.208;18.988;2023-05-10T09:10:54;18.40;99.90
20349;DHT22;10332;50.208;18.988;2023-05-10T09:13:23;18.50;99.90
20349;DHT22;10332;50.208;18.988;2023-05-10T09:15:52;18.60;99.90
20349;DHT22;10332;50.208;18.988;2023-05-10T09:18:20;18.80;99.90
20349;DHT22;10332;50.208;18.988;2023-05-10T09:20:48;18.80;99.90
20349;DHT22;10332;50.208;18.988;2023-05-10T09:23:16;19.00;99.90
20349;DHT22;10332;50.208;18.988;2023-05-10T09:25:44;19.80;99.90
20349;DHT22;10332;50.208;18.988;2023-05-10T09:28:12;23.50;99.90
20349;DHT22;10332;50.208;18.988;2023-05-10T09:30:40;26.90;99.90
20349;DHT22;10332;50.208;18.988;2023-05-10T09:33:07;30.40;99.90
20349;DHT22;10332;50.208;18.988;2023-05-10T09:35:35;32.80;79.70
20349;DHT22;10332;50.208;18.988;2023-05-10T09:38:04;35.20;42.40
20349;DHT22;10332;50.208;18.988;2023-05-10T09:40:32;37.30;22.40
20349;DHT22;10332;50.208;18.988;2023-05-10T09:43:02;38.50;1.00
20349;DHT22;10332;50.208;18.988;2023-05-10T09:45:34;40.70;1.00
20349;DHT22;10332;50.208;18.988;2023-05-10T09:48:05;42.80;1.00
20349;DHT22;10332;50.208;18.988;2023-05-10T09:50:34;42.70;1.00
20349;DHT22;10332;50.208;18.988;2023-05-10T09:53:02;43.80;1.00
20349;DHT22;10332;50.208;18.988;2023-05-10T09:55:41;43.10;1.00
20349;DHT22;10332;50.208;18.988;2023-05-10T09:58:12;42.50;1.00
20349;DHT22;10332;50.208;18.988;2023-05-10T10:00:43;41.70;1.00
20349;DHT22;10332;50.208;18.988;2023-05-10T10:03:21;42.80;1.00
20349;DHT22;10332;50.208;18.988;2023-05-10T10:05:50;43.50;1.00
20349;DHT22;10332;50.208;18.988;2023-05-10T10:08:18;44.40;1.00
20349;DHT22;10332;50.208;18.988;2023-05-10T10:10:46;44.90;1.00
20349;DHT22;10332;50.208;18.988;2023-05-10T10:13:14;44.10;1.00
20349;DHT22;10332;50.208;18.988;2023-05-10T10:15:43;43.50;1.00
20349;DHT22;10332;50.208;18.988;2023-05-10T10:18:18;43.10;1.00
20349;DHT22;10332;50.208;18.988;2023-05-10T10:20:50;43.20;1.00
20349;DHT22;10332;50.208;18.988;2023-05-10T10:23:18;43.70;1.00
20349;DHT22;10332;50.208;18.988;2023-05-10T10:25:46;44.90;1.00
20349;DHT22;10332;50.208;18.988;2023-05-10T10:31:57;45.60;1.00
20349;DHT22;10332;50.208;18.988;2023-05-10T10:34:48;44.00;1.00
20349;DHT22;10332;50.208;18.988;2023-05-10T10:37:16;41.90;1.00
20349;DHT22;10332;50.208;18.988;2023-05-10T10:39:44;42.50;1.00
20349;DHT22;10332;50.208;18.988;2023-05-10T10:42:11;43.00;1.00
20349;DHT22;10332;50.208;18.988;2023-05-10T10:44:39;43.10;1.00
20349;DHT22;10332;50.208;18.988;2023-05-10T10:57:55;34.20;1.00
20349;DHT22;10332;50.208;18.988;2023-05-10T11:00:35;31.90;1.00
20349;DHT22;10332;50.208;18.988;2023-05-10T11:03:08;30.80;1.00
20349;DHT22;10332;50.208;18.988;2023-05-10T11:05:51;30.10;1.00
20349;DHT22;10332;50.208;18.988;2023-05-10T11:08:44;29.60;1.00
20349;DHT22;10332;50.208;18.988;2023-05-10T11:11:14;28.90;1.00
20349;DHT22;10332;50.208;18.988;2023-05-10T11:13:44;28.40;1.00
20349;DHT22;10332;50.208;18.988;2023-05-10T11:19:03;27.50;1.00
20349;DHT22;10332;50.208;18.988;2023-05-10T11:21:44;26.60;1.00
20349;DHT22;10332;50.208;18.988;2023-05-10T11:24:33;26.10;1.00
20349;DHT22;10332;50.208;18.988;2023-05-10T11:27:00;25.70;1.00
20349;DHT22;10332;50.208;18.988;2023-05-10T11:29:28;25.40;4.00
20349;DHT22;10332;50.208;18.988;2023-05-10T11:31:59;25.40;5.30
20349;DHT22;10332;50.208;18.988;2023-05-10T11:34:32;25.30;5.30
20349;DHT22;10332;50.208;18.988;2023-05-10T11:37:02;25.10;6.20
20349;DHT22;10332;50.208;18.988;2023-05-10T11:39:31;25.00;7.80
20349;DHT22;10332;50.208;18.988;2023-05-10T11:42:00;24.80;9.90
20349;DHT22;10332;50.208;18.988;2023-05-10T11:44:30;24.80;11.20
20349;DHT22;10332;50.208;18.988;2023-05-10T11:47:02;24.90;12.10
20349;DHT22;10332;50.208;18.988;2023-05-10T11:49:30;24.70;11.80
20349;DHT22;10332;50.208;18.988;2023-05-10T11:52:07;24.60;11.60
20349;DHT22;10332;50.208;18.988;2023-05-10T11:54:36;24.50;12.50
20349;DHT22;10332;50.208;18.988;2023-05-10T11:57:04;24.40;12.10
20349;DHT22;10332;50.208;18.988;2023-05-10T11:59:31;24.40;12.10
20349;DHT22;10332;50.208;18.988;2023-05-10T12:01:59;24.20;12.40
20349;DHT22;10332;50.208;18.988;2023-05-10T12:04:27;23.80;13.70
20349;DHT22;10332;50.208;18.988;2023-05-10T12:06:56;23.70;15.90
20349;DHT22;10332;50.208;18.988;2023-05-10T12:09:24;23.40;15.40
20349;DHT22;10332;50.208;18.988;2023-05-10T12:12:08;23.40;15.70
20349;DHT22;10332;50.208;18.988;2023-05-10T12:14:36;23.20;18.10
20349;DHT22;10332;50.208;18.988;2023-05-10T12:17:04;23.10;18.40
20349;DHT22;10332;50.208;18.988;2023-05-10T12:19:39;22.80;20.00
20349;DHT22;10332;50.208;18.988;2023-05-10T12:22:06;22.90;20.20
20349;DHT22;10332;50.208;18.988;2023-05-10T12:24:36;22.80;21.20
20349;DHT22;10332;50.208;18.988;2023-05-10T12:27:06;22.80;22.30
20349;DHT22;10332;50.208;18.988;2023-05-10T12:29:36;22.90;22.50
20349;DHT22;10332;50.208;18.988;2023-05-10T12:32:11;22.90;22.50
20349;DHT22;10332;50.208;18.988;2023-05-10T12:34:39;22.90;22.20
20349;DHT22;10332;50.208;18.988;2023-05-10T12:37:07;23.00;22.90
20349;DHT22;10332;50.208;18.988;2023-05-10T12:39:44;23.10;22.70
20349;DHT22;10332;50.208;18.988;2023-05-10T12:42:13;23.20;22.30
20349;DHT22;10332;50.208;18.988;2023-05-10T12:44:42;23.10;21.70
20349;DHT22;10332;50.208;18.988;2023-05-10T12:47:09;23.30;21.20
20349;DHT22;10332;50.208;18.988;2023-05-10T12:49:38;23.50;21.10
20349;DHT22;10332;50.208;18.988;2023-05-10T12:52:05;23.50;21.90
20349;DHT22;10332;50.208;18.988;2023-05-10T12:54:33;23.30;37.10
20349;DHT22;10332;50.208;18.988;2023-05-10T12:57:00;23.20;21.70
20349;DHT22;10332;50.208;18.988;2023-05-10T12:59:28;23.30;21.50
20349;DHT22;10332;50.208;18.988;2023-05-10T13:01:57;23.40;23.30
20349;DHT22;10332;50.208;18.988;2023-05-10T13:04:25;23.50;22.40
20349;DHT22;10332;50.208;18.988;2023-05-10T13:06:53;23.40;20.40
20349;DHT22;10332;50.208;18.988;2023-05-10T13:09:26;23.30;19.90
20349;DHT22;10332;50.208;18.988;2023-05-10T13:11:55;23.20;21.60
20349;DHT22;10332;50.208;18.988;2023-05-10T13:14:23;23.10;22.40
20349;DHT22;10332;50.208;18.988;2023-05-10T13:16:51;23.10;22.50
20349;DHT22;10332;50.208;18.988;2023-05-10T13:19:19;23.20;21.60
20349;DHT22;10332;50.208;18.988;2023-05-10T13:21:47;23.30;23.60
20349;DHT22;10332;50.208;18.988;2023-05-10T13:24:17;23.20;23.20
20349;DHT22;10332;50.208;18.988;2023-05-10T13:26:44;23.10;24.60
20349;DHT22;10332;50.208;18.988;2023-05-10T13:29:12;22.90;26.00
20349;DHT22;10332;50.208;18.988;2023-05-10T13:31:45;23.00;26.50
20349;DHT22;10332;50.208;18.988;2023-05-10T13:34:13;23.00;28.50
20349;DHT22;10332;50.208;18.988;2023-05-10T13:36:41;22.90;26.20
20349;DHT22;10332;50.208;18.988;2023-05-10T13:39:09;22.50;28.40
20349;DHT22;10332;50.208;18.988;2023-05-10T13:41:37;22.60;28.90
20349;DHT22;10332;50.208;18.988;2023-05-10T13:44:05;22.50;30.00
20349;DHT22;10332;50.208;18.988;2023-05-10T13:46:32;22.70;29.50
20349;DHT22;10332;50.208;18.988;2023-05-10T13:49:00;22.70;29.10
20349;DHT22;10332;50.208;18.988;2023-05-10T13:51:28;22.60;45.80
20349;DHT22;10332;50.208;18.988;2023-05-10T13:53:55;22.60;28.10
20349;DHT22;10332;50.208;18.988;2023-05-10T13:56:23;22.60;26.90
20349;DHT22;10332;50.208;18.988;2023-05-10T13:58:51;22.70;28.00
20349;DHT22;10332;50.208;18.988;2023-05-10T14:01:19;22.60;27.80
20349;DHT22;10332;50.208;18.988;2023-05-10T14:04:01;22.60;28.90
20349;DHT22;10332;50.208;18.988;2023-05-10T14:06:29;22.60;29.80
20349;DHT22;10332;50.208;18.988;2023-05-10T14:08:57;22.60;29.20
20349;DHT22;10332;50.208;18.988;2023-05-10T14:11:25;22.70;30.50
20349;DHT22;10332;50.208;18.988;2023-05-10T14:13:52;22.80;31.30
20349;DHT22;10332;50.208;18.988;2023-05-10T14:16:21;23.00;31.40
20349;DHT22;10332;50.208;18.988;2023-05-10T14:18:48;22.90;30.80
20349;DHT22;10332;50.208;18.988;2023-05-10T14:21:16;22.90;29.90
20349;DHT22;10332;50.208;18.988;2023-05-10T14:23:44;22.70;30.20
20349;DHT22;10332;50.208;18.988;2023-05-10T14:26:12;22.50;29.00
20349;DHT22;10332;50.208;18.988;2023-05-10T14:28:39;22.40;29.70
20349;DHT22;10332;50.208;18.988;2023-05-10T14:31:07;22.20;30.50
20349;DHT22;10332;50.208;18.988;2023-05-10T14:33:35;22.20;30.70
20349;DHT22;10332;50.208;18.988;2023-05-10T14:36:03;22.30;31.20
20349;DHT22;10332;50.208;18.988;2023-05-10T14:38:30;22.40;32.20
20349;DHT22;10332;50.208;18.988;2023-05-10T14:40:58;22.40;31.40
20349;DHT22;10332;50.208;18.988;2023-05-10T14:43:26;22.10;31.70
20349;DHT22;10332;50.208;18.988;2023-05-10T14:45:54;22.20;32.70
20349;DHT22;10332;50.208;18.988;2023-05-10T14:48:22;22.30;33.70
20349;DHT22;10332;50.208;18.988;2023-05-10T14:50:49;22.30;33.40
20349;DHT22;10332;50.208;18.988;2023-05-10T14:53:19;22.30;35.80
20349;DHT22;10332;50.208;18.988;2023-05-10T14:55:47;22.30;36.60
20349;DHT22;10332;50.208;18.988;2023-05-10T14:58:15;22.20;35.70
20349;DHT22;10332;50.208;18.988;2023-05-10T15:00:42;22.20;34.40
20349;DHT22;10332;50.208;18.988;2023-05-10T15:03:10;22.20;34.20
20349;DHT22;10332;50.208;18.988;2023-05-10T15:05:39;22.30;35.20
20349;DHT22;10332;50.208;18.988;2023-05-10T15:08:07;22.20;34.30
20349;DHT22;10332;50.208;18.988;2023-05-10T15:10:39;22.20;34.60
20349;DHT22;10332;50.208;18.988;2023-05-10T15:13:07;22.20;35.40
20349;DHT22;10332;50.208;18.988;2023-05-10T15:15:35;22.20;35.70
20349;DHT22;10332;50.208;18.988;2023-05-10T15:18:03;22.20;36.00
20349;DHT22;10332;50.208;18.988;2023-05-10T15:20:31;22.00;35.90
20349;DHT22;10332;50.208;18.988;2023-05-10T15:23:00;22.00;36.80
20349;DHT22;10332;50.208;18.988;2023-05-10T15:25:37;21.60;38.20
20349;DHT22;10332;50.208;18.988;2023-05-10T15:28:05;21.60;38.50
20349;DHT22;10332;50.208;18.988;2023-05-10T15:30:33;21.50;40.00
20349;DHT22;10332;50.208;18.988;2023-05-10T15:33:00;21.40;40.30
20349;DHT22;10332;50.208;18.988;2023-05-10T15:35:28;21.40;40.10
20349;DHT22;10332;50.208;18.988;2023-05-10T15:37:56;21.50;41.30
20349;DHT22;10332;50.208;18.988;2023-05-10T15:40:24;21.40;40.20
20349;DHT22;10332;50.208;18.988;2023-05-10T15:42:51;21.30;40.40
20349;DHT22;10332;50.208;18.988;2023-05-10T15:45:20;21.30;41.40
20349;DHT22;10332;50.208;18.988;2023-05-10T15:47:48;21.30;41.20
20349;DHT22;10332;50.208;18.988;2023-05-10T15:50:16;21.30;42.40
20349;DHT22;10332;50.208;18.988;2023-05-10T15:52:43;21.20;42.10
20349;DHT22;10332;50.208;18.988;2023-05-10T15:55:12;21.20;42.80
20349;DHT22;10332;50.208;18.988;2023-05-10T15:57:41;21.20;42.90
20349;DHT22;10332;50.208;18.988;2023-05-10T16:00:11;21.30;43.70
20349;DHT22;10332;50.208;18.988;2023-05-10T16:02:40;21.30;44.80
20349;DHT22;10332;50.208;18.988;2023-05-10T16:05:08;21.20;43.40
20349;DHT22;10332;50.208;18.988;2023-05-10T16:07:36;20.90;43.60
20349;DHT22;10332;50.208;18.988;2023-05-10T16:10:07;20.90;44.80
20349;DHT22;10332;50.208;18.988;2023-05-10T16:12:37;20.90;44.80
20349;DHT22;10332;50.208;18.988;2023-05-10T16:15:07;20.90;45.70
20349;DHT22;10332;50.208;18.988;2023-05-10T16:17:35;21.00;46.20